Nelson House, Canada
Current Conditions -  °F | °C
As of 11:00 AM on Monday 22 Dec 2014 (Local Time) from CYTH Reporting Station
Light Snow Light Snow  
Wind Chill:   Ceiling: 600
Heat Index: 19°   Visibility: 5mi
Dew Point: 18°   Wind: 8mph
Humidity: 93%   Direction: 50°NE
Pressure: 29.85"   Gusts: NA
Location:  55.8°N, 98.87°W
Report Text: CYTH 221700Z 05007KT 5SM -FZDZ -SN FEW003 OVC006 M07/M08 A2985 RMK SF2SF6 SLP126
Loading
Personal Weather Stations






























Interactive Weather Map New forecast layout! Learn more

10-Day Weather Forecast

Advertisements
Track Severe Weather on mobile